createdAt,value
2022-09-26T04:08:27.003Z,99706.75
2022-09-26T04:11:29.890Z,99706.75
2022-09-26T04:14:32.749Z,99702.31
2022-09-26T04:17:35.125Z,99707.88
2022-09-26T04:20:37.677Z,99706.88
2022-09-26T04:23:41.085Z,99697.97
2022-09-26T04:26:44.467Z,99699.69
2022-09-26T04:29:46.798Z,99696.84
2022-09-26T04:32:49.069Z,99697.50
2022-09-26T04:35:52.957Z,99702.25
2022-09-26T04:38:55.093Z,99693.53
2022-09-26T04:41:58.434Z,99691.62
2022-09-26T04:45:00.483Z,99693.88
2022-09-26T04:48:03.031Z,99688.44
2022-09-26T04:51:09.286Z,99686.81
2022-09-26T04:54:12.362Z,99690.97
2022-09-26T04:57:19.371Z,99689.97
2022-09-26T05:00:23.259Z,99696.69
2022-09-26T05:03:25.809Z,99706.66
2022-09-26T05:06:28.437Z,99705.28
2022-09-26T05:09:35.571Z,99708.44
2022-09-26T05:12:41.424Z,99714.47
2022-09-26T05:15:43.497Z,99711.91
2022-09-26T05:18:52.242Z,99710.91
2022-09-26T05:21:56.717Z,99707.47
2022-09-26T05:25:17.978Z,99706.34
2022-09-26T05:28:20.060Z,99705.22
2022-09-26T05:31:25.428Z,99696.59
2022-09-26T05:34:28.075Z,99698.00
2022-09-26T05:37:31.006Z,99690.69
2022-09-26T05:40:52.055Z,99687.47
2022-09-26T05:43:54.634Z,99682.38
2022-09-26T05:46:57.473Z,99697.41
2022-09-26T05:50:01.117Z,99686.19
2022-09-26T05:53:04.550Z,99711.28
2022-09-26T05:56:12.748Z,99720.34
2022-09-26T05:59:23.218Z,99715.12
2022-09-26T06:02:26.909Z,99717.78
2022-09-26T06:05:31.516Z,99696.50
2022-09-26T06:08:36.972Z,99697.91
2022-09-26T06:11:39.932Z,99687.59
2022-09-26T06:14:46.904Z,99670.44
2022-09-26T06:17:57.686Z,99665.00
2022-09-26T06:21:04.582Z,99660.44
2022-09-26T06:24:08.519Z,99671.41
2022-09-26T06:27:10.810Z,99660.50
2022-09-26T06:30:13.927Z,99666.03
2022-09-26T06:33:16.277Z,99672.63
2022-09-26T06:36:22.596Z,99670.06
2022-09-26T06:39:31.428Z,99674.41
2022-09-26T06:42:37.826Z,99680.28
2022-09-26T06:45:45.815Z,99681.56
2022-09-26T06:48:48.225Z,99676.16
2022-09-26T06:51:50.354Z,99682.00
2022-09-26T06:54:56.426Z,99689.19
2022-09-26T06:57:58.685Z,99687.25
2022-09-26T07:01:02.089Z,99675.16
2022-09-26T07:04:05.871Z,99675.94
2022-09-26T07:07:08.629Z,99681.16
2022-09-26T07:10:10.983Z,99668.72
2022-09-26T07:13:15.659Z,99669.59
2022-09-26T07:16:18.312Z,99672.34
2022-09-26T07:19:21.644Z,99676.59
2022-09-26T07:22:25.944Z,99682.16
2022-09-26T07:25:31.287Z,99684.19
2022-09-26T07:28:34.025Z,99673.37
2022-09-26T07:31:37.113Z,99681.78
2022-09-26T07:34:43.229Z,99674.47
2022-09-26T07:37:52.780Z,99682.22
2022-09-26T07:40:55.366Z,99702.50
2022-09-26T07:47:42.408Z,99705.44
2022-09-26T07:50:46.360Z,99715.28
2022-09-26T07:53:48.935Z,99714.31
2022-09-26T07:56:53.691Z,99719.13
2022-09-26T07:59:55.844Z,99719.91
2022-09-26T08:03:01.405Z,99722.03
2022-09-26T08:06:04.961Z,99714.09
2022-09-26T08:09:07.967Z,99711.75
2022-09-26T08:12:15.071Z,99702.50
2022-09-26T08:15:21.321Z,99700.88
2022-09-26T08:18:25.201Z,99713.84
2022-09-26T08:21:27.285Z,99714.56
2022-09-26T08:24:30.534Z,99713.13
2022-09-26T08:27:34.141Z,99719.19
2022-09-26T08:30:36.963Z,99709.78
2022-09-26T08:33:39.443Z,99704.50
2022-09-26T08:36:41.838Z,99706.59
2022-09-26T08:39:44.930Z,99705.16
2022-09-26T08:43:11.105Z,99712.00
2022-09-26T08:46:29.642Z,99718.66
2022-09-26T08:49:51.229Z,99719.25
2022-09-26T08:53:15.846Z,99716.03
2022-09-26T08:56:22.791Z,99717.81
2022-09-26T08:59:31.420Z,99712.88
2022-09-26T09:03:12.760Z,99722.69
2022-09-26T09:06:18.484Z,99722.53
2022-09-26T09:09:21.787Z,99723.09
2022-09-26T09:12:39.287Z,99732.94
2022-09-26T09:16:12.899Z,99726.28
2022-09-26T09:19:38.885Z,99725.50
2022-09-26T09:23:07.545Z,99722.97
2022-09-26T09:30:17.154Z,99716.56
2022-09-26T09:33:29.457Z,99714.56
2022-09-26T09:36:41.896Z,99696.47
2022-09-26T09:39:48.233Z,99701.09
2022-09-26T09:43:26.821Z,99695.94
2022-09-26T09:46:29.440Z,99700.91
2022-09-26T09:49:32.081Z,99684.38
2022-09-26T09:53:10.005Z,99690.59
2022-09-26T09:56:32.989Z,99675.59
2022-09-26T10:00:09.995Z,99679.19
2022-09-26T10:03:29.541Z,99677.31
2022-09-26T10:06:46.280Z,99680.13
2022-09-26T10:09:51.735Z,99678.78
2022-09-26T10:13:03.621Z,99680.47
2022-09-26T10:16:09.873Z,99672.81
2022-09-26T10:19:13.943Z,99669.41
2022-09-26T10:22:19.714Z,99676.41
2022-09-26T10:25:26.243Z,99679.56
2022-09-26T10:28:30.098Z,99688.59
2022-09-26T10:31:42.334Z,99693.88
2022-09-26T10:35:04.024Z,99686.44
2022-09-26T10:38:18.313Z,99691.16
2022-09-26T10:41:25.325Z,99686.53
2022-09-26T10:44:33.947Z,99695.09
2022-09-26T10:47:40.690Z,99689.56
2022-09-26T10:50:52.176Z,99686.31
2022-09-26T10:54:13.036Z,99684.50
2022-09-26T10:57:23.213Z,99687.31
2022-09-26T11:00:37.364Z,99698.03
2022-09-26T11:03:43.966Z,99695.03
2022-09-26T11:06:49.606Z,99696.16
2022-09-26T11:09:56.923Z,99690.84
2022-09-26T11:13:22.792Z,99694.34
2022-09-26T11:16:27.089Z,99701.44
2022-09-26T11:19:54.644Z,99701.22
2022-09-26T11:23:19.755Z,99703.37
2022-09-26T11:26:54.665Z,99699.19
2022-09-26T11:30:11.508Z,99690.94
2022-09-26T11:33:18.698Z,99687.91
2022-09-26T11:37:00.696Z,99688.00
2022-09-26T11:40:12.286Z,99681.56
2022-09-26T11:43:27.625Z,99683.94
2022-09-26T11:46:58.966Z,99679.84
2022-09-26T11:50:20.285Z,99679.72
2022-09-26T11:53:46.044Z,99678.69
2022-09-26T11:57:31.879Z,99683.66
2022-09-26T12:00:58.489Z,99680.94
2022-09-26T12:04:32.677Z,99691.22
2022-09-26T12:07:44.551Z,99685.31
2022-09-26T12:11:05.472Z,99679.66
2022-09-26T12:14:36.025Z,99673.91
2022-09-26T12:18:05.998Z,99662.56
2022-09-26T12:21:34.255Z,99651.37
2022-09-26T12:24:51.502Z,99646.97
2022-09-26T12:28:19.766Z,99633.00
2022-09-26T12:31:54.760Z,99627.31
2022-09-26T12:35:21.102Z,99622.44
2022-09-26T12:38:44.847Z,99626.91
2022-09-26T12:42:02.651Z,99618.78
2022-09-26T12:45:31.746Z,99625.22
2022-09-26T12:49:11.477Z,99619.75
2022-09-26T12:52:39.839Z,99624.81
2022-09-26T12:55:51.245Z,99604.31
2022-09-26T12:59:29.105Z,99605.91
2022-09-26T13:02:46.796Z,99599.44
2022-09-26T13:06:14.857Z,99605.13
2022-09-26T13:09:31.693Z,99606.94
2022-09-26T13:12:47.203Z,99607.84
2022-09-26T13:16:00.001Z,99611.06
2022-09-26T13:19:16.443Z,99614.22
2022-09-26T13:22:21.976Z,99609.81
2022-09-26T13:25:49.394Z,99612.81
2022-09-26T13:29:17.217Z,99610.09
2022-09-26T13:32:34.115Z,99608.81
2022-09-26T13:35:41.049Z,99601.97
2022-09-26T13:39:00.007Z,99619.03
2022-09-26T13:42:11.144Z,99605.72
2022-09-26T13:45:33.403Z,99607.91
2022-09-26T13:48:46.153Z,99610.47
2022-09-26T13:52:01.178Z,99618.25
2022-09-26T13:55:10.836Z,99615.56
2022-09-26T13:58:21.444Z,99614.41
2022-09-26T14:01:27.505Z,99607.13
2022-09-26T14:04:36.421Z,99592.84
2022-09-26T14:07:57.133Z,99592.22
2022-09-26T14:11:11.841Z,99588.91
2022-09-26T14:14:16.810Z,99601.97
2022-09-26T14:17:44.915Z,99603.19
2022-09-26T14:20:57.224Z,99593.47
2022-09-26T14:24:21.160Z,99582.69
2022-09-26T14:27:36.120Z,99576.56
2022-09-26T14:30:38.563Z,99577.56
2022-09-26T14:33:42.949Z,99553.91
2022-09-26T14:36:46.881Z,99556.81
2022-09-26T14:40:00.068Z,99558.66
2022-09-26T14:43:17.479Z,99555.94
2022-09-26T14:46:25.606Z,99549.91
2022-09-26T14:49:28.830Z,99551.06
2022-09-26T14:52:32.673Z,99556.66
2022-09-26T14:55:34.995Z,99551.22
2022-09-26T14:58:37.173Z,99552.78
2022-09-26T15:01:39.868Z,99560.59
2022-09-26T15:04:43.544Z,99553.66
2022-09-26T15:07:53.990Z,99562.25
2022-09-26T15:10:57.952Z,99556.81
2022-09-26T15:14:10.858Z,99537.75
2022-09-26T15:17:18.529Z,99532.91
2022-09-26T15:20:22.698Z,99532.12
2022-09-26T15:23:32.156Z,99536.75
2022-09-26T15:26:36.724Z,99534.47
2022-09-26T15:29:48.444Z,99525.47
2022-09-26T15:32:56.838Z,99525.66
2022-09-26T15:36:01.139Z,99534.50
2022-09-26T15:39:32.145Z,99533.25
2022-09-26T15:42:53.004Z,99530.91
2022-09-26T15:45:58.800Z,99531.16
2022-09-26T15:49:00.894Z,99537.13
2022-09-26T15:52:04.650Z,99536.87
2022-09-26T15:55:09.244Z,99542.63
